sensor_id;sensor_type;location;lat;lon;timestamp;temperature;humidity
55828;DHT22;41758;51.992;5.890;2023-01-30T00:02:16;9.70;66.40
55828;DHT22;41758;51.992;5.890;2023-01-30T00:04:42;9.70;66.50
55828;DHT22;41758;51.992;5.890;2023-01-30T00:10:36;9.70;66.60
55828;DHT22;41758;51.992;5.890;2023-01-30T00:13:02;9.70;66.60
55828;DHT22;41758;51.992;5.890;2023-01-30T00:18:27;9.80;66.70
55828;DHT22;41758;51.992;5.890;2023-01-30T00:21:01;9.80;66.70
55828;DHT22;41758;51.992;5.890;2023-01-30T00:23:40;9.80;66.60
55828;DHT22;41758;51.992;5.890;2023-01-30T00:26:47;9.80;66.60
55828;DHT22;41758;51.992;5.890;2023-01-30T00:29:48;9.80;66.60
55828;DHT22;41758;51.992;5.890;2023-01-30T00:32:25;9.80;66.70
55828;DHT22;41758;51.992;5.890;2023-01-30T00:35:00;9.90;66.80
55828;DHT22;41758;51.992;5.890;2023-01-30T00:37:27;9.90;66.70
55828;DHT22;41758;51.992;5.890;2023-01-30T00:39:53;9.80;66.80
55828;DHT22;41758;51.992;5.890;2023-01-30T00:42:40;9.80;66.80
55828;DHT22;41758;51.992;5.890;2023-01-30T00:45:27;9.90;66.70
55828;DHT22;41758;51.992;5.890;2023-01-30T00:48:23;9.90;67.00
55828;DHT22;41758;51.992;5.890;2023-01-30T00:50:52;9.90;66.90
55828;DHT22;41758;51.992;5.890;2023-01-30T00:54:15;9.90;66.90
55828;DHT22;41758;51.992;5.890;2023-01-30T00:56:50;9.90;67.00
55828;DHT22;41758;51.992;5.890;2023-01-30T00:59:29;9.90;67.10
55828;DHT22;41758;51.992;5.890;2023-01-30T01:02:00;9.90;67.10
55828;DHT22;41758;51.992;5.890;2023-01-30T01:04:29;9.90;67.10
55828;DHT22;41758;51.992;5.890;2023-01-30T01:07:05;10.00;67.20
55828;DHT22;41758;51.992;5.890;2023-01-30T01:09:40;10.00;67.10
55828;DHT22;41758;51.992;5.890;2023-01-30T01:12:08;10.00;67.20
55828;DHT22;41758;51.992;5.890;2023-01-30T01:14:37;10.00;67.30
55828;DHT22;41758;51.992;5.890;2023-01-30T01:17:12;10.10;67.20
55828;DHT22;41758;51.992;5.890;2023-01-30T01:20:13;10.10;67.20
55828;DHT22;41758;51.992;5.890;2023-01-30T01:22:40;10.10;67.30
55828;DHT22;41758;51.992;5.890;2023-01-30T01:25:21;10.10;67.40
55828;DHT22;41758;51.992;5.890;2023-01-30T01:28:05;10.10;67.30
55828;DHT22;41758;51.992;5.890;2023-01-30T01:31:12;10.20;67.20
55828;DHT22;41758;51.992;5.890;2023-01-30T01:33:57;10.20;67.30
55828;DHT22;41758;51.992;5.890;2023-01-30T01:36:48;10.20;67.40
55828;DHT22;41758;51.992;5.890;2023-01-30T01:39:24;10.20;67.40
55828;DHT22;41758;51.992;5.890;2023-01-30T01:42:14;10.20;67.60
55828;DHT22;41758;51.992;5.890;2023-01-30T01:47:41;10.10;67.90
55828;DHT22;41758;51.992;5.890;2023-01-30T01:55:00;10.20;67.90
55828;DHT22;41758;51.992;5.890;2023-01-30T01:58:18;10.10;68.10
55828;DHT22;41758;51.992;5.890;2023-01-30T02:00:53;10.10;68.40
55828;DHT22;41758;51.992;5.890;2023-01-30T02:03:35;10.10;68.40
55828;DHT22;41758;51.992;5.890;2023-01-30T02:06:08;10.20;68.50
55828;DHT22;41758;51.992;5.890;2023-01-30T02:08:53;10.20;68.30
55828;DHT22;41758;51.992;5.890;2023-01-30T02:11:41;10.20;68.40
55828;DHT22;41758;51.992;5.890;2023-01-30T02:14:25;10.20;68.50
55828;DHT22;41758;51.992;5.890;2023-01-30T02:16:59;10.20;68.70
55828;DHT22;41758;51.992;5.890;2023-01-30T02:42:33;10.20;69.80
55828;DHT22;41758;51.992;5.890;2023-01-30T02:45:32;10.10;70.30
55828;DHT22;41758;51.992;5.890;2023-01-30T02:48:26;10.20;70.50
55828;DHT22;41758;51.992;5.890;2023-01-30T02:51:36;10.20;70.70
55828;DHT22;41758;51.992;5.890;2023-01-30T02:54:14;10.20;70.90
55828;DHT22;41758;51.992;5.890;2023-01-30T02:56:50;10.30;71.10
55828;DHT22;41758;51.992;5.890;2023-01-30T02:59:42;10.30;71.20
55828;DHT22;41758;51.992;5.890;2023-01-30T03:02:41;10.30;71.40
55828;DHT22;41758;51.992;5.890;2023-01-30T03:05:24;10.30;71.70
55828;DHT22;41758;51.992;5.890;2023-01-30T03:10:51;10.40;71.80
55828;DHT22;41758;51.992;5.890;2023-01-30T03:16:02;10.50;71.70
55828;DHT22;41758;51.992;5.890;2023-01-30T03:18:29;10.50;71.70
55828;DHT22;41758;51.992;5.890;2023-01-30T03:20:55;10.60;71.70
55828;DHT22;41758;51.992;5.890;2023-01-30T03:23:21;10.50;71.70
55828;DHT22;41758;51.992;5.890;2023-01-30T03:25:48;10.60;71.70
55828;DHT22;41758;51.992;5.890;2023-01-30T03:28:17;10.60;71.60
55828;DHT22;41758;51.992;5.890;2023-01-30T03:30:44;10.60;71.50
55828;DHT22;41758;51.992;5.890;2023-01-30T03:33:09;10.70;71.50
55828;DHT22;41758;51.992;5.890;2023-01-30T03:35:37;10.60;71.60
55828;DHT22;41758;51.992;5.890;2023-01-30T03:38:06;10.70;71.70
55828;DHT22;41758;51.992;5.890;2023-01-30T03:40:34;10.70;71.60
55828;DHT22;41758;51.992;5.890;2023-01-30T03:43:01;10.70;71.70
55828;DHT22;41758;51.992;5.890;2023-01-30T03:45:27;10.70;71.70
55828;DHT22;41758;51.992;5.890;2023-01-30T03:47:53;10.70;71.60
55828;DHT22;41758;51.992;5.890;2023-01-30T03:50:18;10.80;71.60
55828;DHT22;41758;51.992;5.890;2023-01-30T03:52:45;10.80;71.60
55828;DHT22;41758;51.992;5.890;2023-01-30T03:55:15;10.80;71.70
55828;DHT22;41758;51.992;5.890;2023-01-30T03:57:42;10.80;71.70
55828;DHT22;41758;51.992;5.890;2023-01-30T04:00:09;10.70;71.60
55828;DHT22;41758;51.992;5.890;2023-01-30T04:02:42;10.80;71.60
55828;DHT22;41758;51.992;5.890;2023-01-30T04:05:08;10.80;71.70
55828;DHT22;41758;51.992;5.890;2023-01-30T04:07:35;10.80;71.70
55828;DHT22;41758;51.992;5.890;2023-01-30T04:10:00;10.80;71.70
55828;DHT22;41758;51.992;5.890;2023-01-30T04:12:26;10.80;71.70
55828;DHT22;41758;51.992;5.890;2023-01-30T04:14:56;10.80;71.70
55828;DHT22;41758;51.992;5.890;2023-01-30T04:17:36;10.80;71.60
55828;DHT22;41758;51.992;5.890;2023-01-30T04:20:45;10.80;71.70
55828;DHT22;41758;51.992;5.890;2023-01-30T04:31:24;10.80;71.80
55828;DHT22;41758;51.992;5.890;2023-01-30T04:34:41;10.80;72.10
55828;DHT22;41758;51.992;5.890;2023-01-30T04:37:49;10.80;72.10
55828;DHT22;41758;51.992;5.890;2023-01-30T04:40:29;10.80;72.20
55828;DHT22;41758;51.992;5.890;2023-01-30T04:43:09;10.80;72.30
55828;DHT22;41758;51.992;5.890;2023-01-30T04:46:06;10.80;72.20
55828;DHT22;41758;51.992;5.890;2023-01-30T04:48:32;10.90;72.10
55828;DHT22;41758;51.992;5.890;2023-01-30T04:51:00;10.90;72.00
55828;DHT22;41758;51.992;5.890;2023-01-30T04:53:26;10.90;71.90
55828;DHT22;41758;51.992;5.890;2023-01-30T04:55:52;10.90;72.00
55828;DHT22;41758;51.992;5.890;2023-01-30T04:58:20;10.90;72.10
55828;DHT22;41758;51.992;5.890;2023-01-30T05:00:48;11.00;72.10
55828;DHT22;41758;51.992;5.890;2023-01-30T05:03:47;10.90;72.10
55828;DHT22;41758;51.992;5.890;2023-01-30T05:07:52;11.00;72.10
55828;DHT22;41758;51.992;5.890;2023-01-30T05:11:34;10.90;72.10
55828;DHT22;41758;51.992;5.890;2023-01-30T05:14:48;10.90;72.10
55828;DHT22;41758;51.992;5.890;2023-01-30T05:45:06;10.90;72.40
55828;DHT22;41758;51.992;5.890;2023-01-30T05:47:39;10.90;72.40
55828;DHT22;41758;51.992;5.890;2023-01-30T05:50:05;10.90;72.40
55828;DHT22;41758;51.992;5.890;2023-01-30T05:52:31;10.90;72.40
55828;DHT22;41758;51.992;5.890;2023-01-30T05:54:57;10.90;72.20
55828;DHT22;41758;51.992;5.890;2023-01-30T05:57:37;10.90;72.00
55828;DHT22;41758;51.992;5.890;2023-01-30T06:00:26;10.90;71.90
55828;DHT22;41758;51.992;5.890;2023-01-30T06:02:55;10.90;71.80
55828;DHT22;41758;51.992;5.890;2023-01-30T06:05:21;10.90;71.70
55828;DHT22;41758;51.992;5.890;2023-01-30T06:07:56;10.90;71.70
55828;DHT22;41758;51.992;5.890;2023-01-30T06:10:22;10.90;71.50
55828;DHT22;41758;51.992;5.890;2023-01-30T06:12:50;10.80;71.20
55828;DHT22;41758;51.992;5.890;2023-01-30T06:15:24;10.80;71.10
55828;DHT22;41758;51.992;5.890;2023-01-30T06:17:50;10.70;70.90
55828;DHT22;41758;51.992;5.890;2023-01-30T06:20:24;10.60;70.90
55828;DHT22;41758;51.992;5.890;2023-01-30T06:22:52;10.60;70.90
55828;DHT22;41758;51.992;5.890;2023-01-30T06:25:18;10.60;70.90
55828;DHT22;41758;51.992;5.890;2023-01-30T06:27:45;10.60;70.80
55828;DHT22;41758;51.992;5.890;2023-01-30T06:31:08;10.60;70.80
55828;DHT22;41758;51.992;5.890;2023-01-30T06:45:40;10.40;70.50
55828;DHT22;41758;51.992;5.890;2023-01-30T06:48:22;10.40;70.60
55828;DHT22;41758;51.992;5.890;2023-01-30T06:51:08;10.30;70.50
55828;DHT22;41758;51.992;5.890;2023-01-30T06:54:08;10.30;70.50
55828;DHT22;41758;51.992;5.890;2023-01-30T06:59:18;10.30;70.50
55828;DHT22;41758;51.992;5.890;2023-01-30T07:01:57;10.20;70.50
55828;DHT22;41758;51.992;5.890;2023-01-30T07:04:41;10.20;70.30
55828;DHT22;41758;51.992;5.890;2023-01-30T07:07:17;10.20;70.30
55828;DHT22;41758;51.992;5.890;2023-01-30T07:10:10;10.10;70.30
55828;DHT22;41758;51.992;5.890;2023-01-30T07:13:02;10.10;70.20
55828;DHT22;41758;51.992;5.890;2023-01-30T07:19:35;10.00;70.10
55828;DHT22;41758;51.992;5.890;2023-01-30T07:22:33;10.00;70.10
55828;DHT22;41758;51.992;5.890;2023-01-30T09:59:52;10.60;66.30
55828;DHT22;41758;51.992;5.890;2023-01-30T10:44:36;11.10;64.50
55828;DHT22;41758;51.992;5.890;2023-01-30T10:51:32;11.00;64.80
55828;DHT22;41758;51.992;5.890;2023-01-30T10:54:27;11.10;65.40
55828;DHT22;41758;51.992;5.890;2023-01-30T11:00:01;11.20;65.10
55828;DHT22;41758;51.992;5.890;2023-01-30T11:09:15;11.30;64.00
55828;DHT22;41758;51.992;5.890;2023-01-30T11:12:32;11.30;63.90
55828;DHT22;41758;51.992;5.890;2023-01-30T11:15:13;11.30;64.10
55828;DHT22;41758;51.992;5.890;2023-01-30T11:17:41;11.40;64.30
55828;DHT22;41758;51.992;5.890;2023-01-30T11:20:19;11.50;63.80
55828;DHT22;41758;51.992;5.890;2023-01-30T11:23:32;11.60;64.10
55828;DHT22;41758;51.992;5.890;2023-01-30T11:26:29;11.70;63.90
55828;DHT22;41758;51.992;5.890;2023-01-30T11:29:27;11.80;62.90
55828;DHT22;41758;51.992;5.890;2023-01-30T11:47:36;12.00;61.50
55828;DHT22;41758;51.992;5.890;2023-01-30T11:50:42;12.10;61.70
55828;DHT22;41758;51.992;5.890;2023-01-30T11:54:36;12.30;61.40
55828;DHT22;41758;51.992;5.890;2023-01-30T12:03:54;12.50;59.80
55828;DHT22;41758;51.992;5.890;2023-01-30T12:06:34;12.60;61.00
55828;DHT22;41758;51.992;5.890;2023-01-30T12:09:04;12.60;60.50
55828;DHT22;41758;51.992;5.890;2023-01-30T12:11:44;12.80;61.20
55828;DHT22;41758;51.992;5.890;2023-01-30T12:14:50;12.80;60.80
55828;DHT22;41758;51.992;5.890;2023-01-30T12:17:46;12.80;60.20
55828;DHT22;41758;51.992;5.890;2023-01-30T12:33:16;12.60;58.40
55828;DHT22;41758;51.992;5.890;2023-01-30T12:40:53;12.50;58.90
55828;DHT22;41758;51.992;5.890;2023-01-30T12:44:00;12.60;60.80
55828;DHT22;41758;51.992;5.890;2023-01-30T12:55:47;13.00;62.40
55828;DHT22;41758;51.992;5.890;2023-01-30T13:06:54;13.20;57.80
55828;DHT22;41758;51.992;5.890;2023-01-30T13:09:47;13.10;58.10
55828;DHT22;41758;51.992;5.890;2023-01-30T13:15:17;13.00;58.20
55828;DHT22;41758;51.992;5.890;2023-01-30T13:18:06;13.00;57.90
55828;DHT22;41758;51.992;5.890;2023-01-30T13:26:09;12.90;61.00
55828;DHT22;41758;51.992;5.890;2023-01-30T13:28:41;13.00;60.40
55828;DHT22;41758;51.992;5.890;2023-01-30T13:31:11;13.00;60.90
55828;DHT22;41758;51.992;5.890;2023-01-30T13:33:41;12.90;60.10
55828;DHT22;41758;51.992;5.890;2023-01-30T13:41:23;12.90;59.40
55828;DHT22;41758;51.992;5.890;2023-01-30T13:43:52;12.90;58.90
55828;DHT22;41758;51.992;5.890;2023-01-30T13:46:28;12.90;58.20
55828;DHT22;41758;51.992;5.890;2023-01-30T13:49:17;12.80;58.40
55828;DHT22;41758;51.992;5.890;2023-01-30T13:52:01;12.80;58.90
55828;DHT22;41758;51.992;5.890;2023-01-30T14:00:28;12.80;59.70
55828;DHT22;41758;51.992;5.890;2023-01-30T14:08:40;12.80;60.90
55828;DHT22;41758;51.992;5.890;2023-01-30T14:16:52;12.80;60.20
55828;DHT22;41758;51.992;5.890;2023-01-30T14:19:41;12.70;59.80
55828;DHT22;41758;51.992;5.890;2023-01-30T14:38:24;12.90;59.50
55828;DHT22;41758;51.992;5.890;2023-01-30T14:43:36;12.80;59.90
55828;DHT22;41758;51.992;5.890;2023-01-30T14:46:06;12.90;60.40
55828;DHT22;41758;51.992;5.890;2023-01-30T14:49:03;12.90;58.50
55828;DHT22;41758;51.992;5.890;2023-01-30T14:56:57;12.90;58.80
55828;DHT22;41758;51.992;5.890;2023-01-30T14:59:34;12.80;58.40
55828;DHT22;41758;51.992;5.890;2023-01-30T15:07:21;12.70;58.40
55828;DHT22;41758;51.992;5.890;2023-01-30T15:10:02;12.70;59.10
55828;DHT22;41758;51.992;5.890;2023-01-30T15:32:18;12.60;58.70
55828;DHT22;41758;51.992;5.890;2023-01-30T15:40:43;12.40;58.30
55828;DHT22;41758;51.992;5.890;2023-01-30T15:43:39;12.40;58.00
55828;DHT22;41758;51.992;5.890;2023-01-30T15:46:19;12.40;58.10
55828;DHT22;41758;51.992;5.890;2023-01-30T15:51:52;12.40;58.40
55828;DHT22;41758;51.992;5.890;2023-01-30T15:54:22;12.40;58.60
55828;DHT22;41758;51.992;5.890;2023-01-30T15:56:48;12.40;59.10
55828;DHT22;41758;51.992;5.890;2023-01-30T16:04:33;12.40;58.20
55828;DHT22;41758;51.992;5.890;2023-01-30T16:07:02;12.40;58.80
55828;DHT22;41758;51.992;5.890;2023-01-30T16:09:53;12.40;59.40
55828;DHT22;41758;51.992;5.890;2023-01-30T16:12:27;12.40;58.80
55828;DHT22;41758;51.992;5.890;2023-01-30T16:14:53;12.30;56.90
55828;DHT22;41758;51.992;5.890;2023-01-30T16:17:31;12.30;58.10
55828;DHT22;41758;51.992;5.890;2023-01-30T16:20:10;12.30;59.10
55828;DHT22;41758;51.992;5.890;2023-01-30T16:22:42;12.30;58.60
55828;DHT22;41758;51.992;5.890;2023-01-30T16:25:22;12.30;59.00
55828;DHT22;41758;51.992;5.890;2023-01-30T16:27:49;12.30;58.70
55828;DHT22;41758;51.992;5.890;2023-01-30T16:30:25;12.20;57.90
55828;DHT22;41758;51.992;5.890;2023-01-30T16:32:54;12.20;58.40
55828;DHT22;41758;51.992;5.890;2023-01-30T16:37:51;12.00;58.80
55828;DHT22;41758;51.992;5.890;2023-01-30T16:40:43;12.00;58.80
55828;DHT22;41758;51.992;5.890;2023-01-30T16:43:22;12.00;59.30
55828;DHT22;41758;51.992;5.890;2023-01-30T16:48:21;11.90;59.20
55828;DHT22;41758;51.992;5.890;2023-01-30T16:53:55;11.90;59.80
55828;DHT22;41758;51.992;5.890;2023-01-30T16:56:22;11.80;59.70
55828;DHT22;41758;51.992;5.890;2023-01-30T16:58:55;11.80;60.30
55828;DHT22;41758;51.992;5.890;2023-01-30T17:01:33;11.80;60.10
55828;DHT22;41758;51.992;5.890;2023-01-30T17:04:02;11.80;60.10
55828;DHT22;41758;51.992;5.890;2023-01-30T17:06:38;11.80;59.90
55828;DHT22;41758;51.992;5.890;2023-01-30T17:09:37;11.80;60.80
55828;DHT22;41758;51.992;5.890;2023-01-30T17:17:44;11.70;60.90
55828;DHT22;41758;51.992;5.890;2023-01-30T17:20:11;11.70;60.90
55828;DHT22;41758;51.992;5.890;2023-01-30T17:22:39;11.70;60.80
55828;DHT22;41758;51.992;5.890;2023-01-30T17:25:17;11.70;60.60
55828;DHT22;41758;51.992;5.890;2023-01-30T17:27:44;11.70;60.20
55828;DHT22;41758;51.992;5.890;2023-01-30T17:30:17;11.60;60.20
55828;DHT22;41758;51.992;5.890;2023-01-30T17:32:43;11.60;59.70
55828;DHT22;41758;51.992;5.890;2023-01-30T17:35:11;11.50;59.90
55828;DHT22;41758;51.992;5.890;2023-01-30T17:37:37;11.50;60.10
55828;DHT22;41758;51.992;5.890;2023-01-30T17:40:19;11.50;60.20
55828;DHT22;41758;51.992;5.890;2023-01-30T17:42:47;11.40;60.40
55828;DHT22;41758;51.992;5.890;2023-01-30T17:45:12;11.40;60.40
55828;DHT22;41758;51.992;5.890;2023-01-30T17:47:44;11.30;60.60
55828;DHT22;41758;51.992;5.890;2023-01-30T17:50:13;11.30;60.60
55828;DHT22;41758;51.992;5.890;2023-01-30T17:52:39;11.30;60.70
55828;DHT22;41758;51.992;5.890;2023-01-30T17:55:06;11.30;60.40
55828;DHT22;41758;51.992;5.890;2023-01-30T17:57:32;11.20;60.10
55828;DHT22;41758;51.992;5.890;2023-01-30T17:59:58;11.20;60.70
55828;DHT22;41758;51.992;5.890;2023-01-30T18:02:24;11.10;60.70
55828;DHT22;41758;51.992;5.890;2023-01-30T18:04:52;11.10;60.60
55828;DHT22;41758;51.992;5.890;2023-01-30T18:07:18;11.10;60.70
55828;DHT22;41758;51.992;5.890;2023-01-30T18:09:46;11.00;60.80
55828;DHT22;41758;51.992;5.890;2023-01-30T18:12:11;11.00;60.60
55828;DHT22;41758;51.992;5.890;2023-01-30T18:14:49;10.90;60.60
55828;DHT22;41758;51.992;5.890;2023-01-30T18:17:15;10.90;60.60
55828;DHT22;41758;51.992;5.890;2023-01-30T18:19:44;10.90;60.70
55828;DHT22;41758;51.992;5.890;2023-01-30T18:22:12;10.80;60.70
55828;DHT22;41758;51.992;5.890;2023-01-30T18:24:38;10.80;60.60
55828;DHT22;41758;51.992;5.890;2023-01-30T18:27:04;10.80;60.80
55828;DHT22;41758;51.992;5.890;2023-01-30T18:29:29;10.80;60.90
55828;DHT22;41758;51.992;5.890;2023-01-30T18:31:56;10.70;60.90
55828;DHT22;41758;51.992;5.890;2023-01-30T18:34:27;10.70;61.00
55828;DHT22;41758;51.992;5.890;2023-01-30T18:36:53;10.70;61.20
55828;DHT22;41758;51.992;5.890;2023-01-30T18:39:19;10.70;61.20
55828;DHT22;41758;51.992;5.890;2023-01-30T18:41:45;10.60;61.20
55828;DHT22;41758;51.992;5.890;2023-01-30T18:44:11;10.60;61.30
55828;DHT22;41758;51.992;5.890;2023-01-30T18:46:37;10.60;61.30
55828;DHT22;41758;51.992;5.890;2023-01-30T18:49:03;10.60;61.20
55828;DHT22;41758;51.992;5.890;2023-01-30T18:51:32;10.60;61.20
55828;DHT22;41758;51.992;5.890;2023-01-30T18:53:59;10.50;61.40
55828;DHT22;41758;51.992;5.890;2023-01-30T18:56:33;10.60;61.40
55828;DHT22;41758;51.992;5.890;2023-01-30T18:59:00;10.50;61.40
55828;DHT22;41758;51.992;5.890;2023-01-30T19:01:33;10.50;61.70
55828;DHT22;41758;51.992;5.890;2023-01-30T19:04:01;10.50;61.70
55828;DHT22;41758;51.992;5.890;2023-01-30T19:06:33;10.40;61.70
55828;DHT22;41758;51.992;5.890;2023-01-30T19:08:59;10.40;61.70
55828;DHT22;41758;51.992;5.890;2023-01-30T19:23:48;10.20;61.80
55828;DHT22;41758;51.992;5.890;2023-01-30T19:27:05;10.10;62.10
55828;DHT22;41758;51.992;5.890;2023-01-30T19:30:18;10.10;62.40
55828;DHT22;41758;51.992;5.890;2023-01-30T19:32:49;10.00;62.30
55828;DHT22;41758;51.992;5.890;2023-01-30T19:35:23;10.00;62.50
55828;DHT22;41758;51.992;5.890;2023-01-30T19:37:57;10.00;62.60
55828;DHT22;41758;51.992;5.890;2023-01-30T19:40:31;10.00;62.80
55828;DHT22;41758;51.992;5.890;2023-01-30T19:50:07;9.90;62.90
55828;DHT22;41758;51.992;5.890;2023-01-30T19:52:38;9.90;63.00
55828;DHT22;41758;51.992;5.890;2023-01-30T19:55:25;9.80;62.60
55828;DHT22;41758;51.992;5.890;2023-01-30T19:58:11;9.80;62.80
55828;DHT22;41758;51.992;5.890;2023-01-30T20:00:40;9.80;63.20
55828;DHT22;41758;51.992;5.890;2023-01-30T20:03:09;9.80;63.10
55828;DHT22;41758;51.992;5.890;2023-01-30T20:05:42;9.80;62.90
55828;DHT22;41758;51.992;5.890;2023-01-30T20:08:18;9.80;63.10
55828;DHT22;41758;51.992;5.890;2023-01-30T20:10:44;9.70;62.90
55828;DHT22;41758;51.992;5.890;2023-01-30T20:13:13;9.70;62.80
55828;DHT22;41758;51.992;5.890;2023-01-30T20:16:16;9.70;62.70
55828;DHT22;41758;51.992;5.890;2023-01-30T20:18:54;9.70;62.60
55828;DHT22;41758;51.992;5.890;2023-01-30T20:21:37;9.70;62.60
55828;DHT22;41758;51.992;5.890;2023-01-30T20:24:14;9.70;62.70
55828;DHT22;41758;51.992;5.890;2023-01-30T20:26:51;9.70;63.10
55828;DHT22;41758;51.992;5.890;2023-01-30T20:29:55;9.70;63.30
55828;DHT22;41758;51.992;5.890;2023-01-30T20:36:30;9.70;63.10
55828;DHT22;41758;51.992;5.890;2023-01-30T20:39:18;9.70;63.00
55828;DHT22;41758;51.992;5.890;2023-01-30T20:49:23;9.60;63.50
55828;DHT22;41758;51.992;5.890;2023-01-30T20:54:48;9.60;63.80
55828;DHT22;41758;51.992;5.890;2023-01-30T20:57:16;9.60;63.50
55828;DHT22;41758;51.992;5.890;2023-01-30T20:59:48;9.60;63.50
55828;DHT22;41758;51.992;5.890;2023-01-30T21:02:17;9.60;63.50
55828;DHT22;41758;51.992;5.890;2023-01-30T21:11:22;9.60;63.60
55828;DHT22;41758;51.992;5.890;2023-01-30T21:17:07;9.60;63.40
55828;DHT22;41758;51.992;5.890;2023-01-30T21:20:04;9.50;63.40
55828;DHT22;41758;51.992;5.890;2023-01-30T21:22:57;9.50;63.80
55828;DHT22;41758;51.992;5.890;2023-01-30T21:25:55;9.40;63.80
55828;DHT22;41758;51.992;5.890;2023-01-30T21:28:43;9.40;63.60
55828;DHT22;41758;51.992;5.890;2023-01-30T21:34:57;9.40;63.90
55828;DHT22;41758;51.992;5.890;2023-01-30T21:37:31;9.40;63.90
55828;DHT22;41758;51.992;5.890;2023-01-30T21:40:24;9.40;64.30
55828;DHT22;41758;51.992;5.890;2023-01-30T21:44:05;9.40;64.20
55828;DHT22;41758;51.992;5.890;2023-01-30T21:46:37;9.30;64.20
55828;DHT22;41758;51.992;5.890;2023-01-30T21:49:04;9.30;63.90
55828;DHT22;41758;51.992;5.890;2023-01-30T21:51:30;9.30;64.10
55828;DHT22;41758;51.992;5.890;2023-01-30T21:56:56;9.30;64.10
55828;DHT22;41758;51.992;5.890;2023-01-30T21:59:21;9.30;64.20
55828;DHT22;41758;51.992;5.890;2023-01-30T22:01:47;9.30;64.00
55828;DHT22;41758;51.992;5.890;2023-01-30T22:04:21;9.30;64.20
55828;DHT22;41758;51.992;5.890;2023-01-30T22:06:54;9.20;64.00
55828;DHT22;41758;51.992;5.890;2023-01-30T22:17:57;9.10;64.10
55828;DHT22;41758;51.992;5.890;2023-01-30T22:21:12;9.10;63.70
55828;DHT22;41758;51.992;5.890;2023-01-30T22:24:18;9.00;64.50
55828;DHT22;41758;51.992;5.890;2023-01-30T22:28:21;9.00;64.50
55828;DHT22;41758;51.992;5.890;2023-01-30T22:35:57;9.00;64.20
55828;DHT22;41758;51.992;5.890;2023-01-30T22:39:09;9.00;64.20
55828;DHT22;41758;51.992;5.890;2023-01-30T22:51:03;8.90;64.60
55828;DHT22;41758;51.992;5.890;2023-01-30T22:54:33;8.90;64.80
55828;DHT22;41758;51.992;5.890;2023-01-30T22:57:50;8.80;64.80
55828;DHT22;41758;51.992;5.890;2023-01-30T23:00:16;8.80;64.80
55828;DHT22;41758;51.992;5.890;2023-01-30T23:02:41;8.90;64.80
55828;DHT22;41758;51.992;5.890;2023-01-30T23:05:07;8.80;64.60
55828;DHT22;41758;51.992;5.890;2023-01-30T23:07:33;8.80;64.70
55828;DHT22;41758;51.992;5.890;2023-01-30T23:09:59;8.90;64.80
55828;DHT22;41758;51.992;5.890;2023-01-30T23:12:28;8.90;64.50
55828;DHT22;41758;51.992;5.890;2023-01-30T23:15:13;8.90;64.70
55828;DHT22;41758;51.992;5.890;2023-01-30T23:17:39;8.90;64.70
55828;DHT22;41758;51.992;5.890;2023-01-30T23:20:23;8.90;64.90
55828;DHT22;41758;51.992;5.890;2023-01-30T23:22:52;8.90;64.60
55828;DHT22;41758;51.992;5.890;2023-01-30T23:25:18;8.90;64.60
55828;DHT22;41758;51.992;5.890;2023-01-30T23:27:44;8.90;64.40
55828;DHT22;41758;51.992;5.890;2023-01-30T23:30:10;8.90;64.50
55828;DHT22;41758;51.992;5.890;2023-01-30T23:32:36;8.90;64.30
55828;DHT22;41758;51.992;5.890;2023-01-30T23:35:01;8.90;64.70
55828;DHT22;41758;51.992;5.890;2023-01-30T23:37:32;8.90;64.50
55828;DHT22;41758;51.992;5.890;2023-01-30T23:40:17;8.90;64.40
55828;DHT22;41758;51.992;5.890;2023-01-30T23:42:42;8.80;64.30
55828;DHT22;41758;51.992;5.890;2023-01-30T23:45:08;8.90;64.60
55828;DHT22;41758;51.992;5.890;2023-01-30T23:47:34;8.80;64.00
55828;DHT22;41758;51.992;5.890;2023-01-30T23:50:00;8.90;64.30
55828;DHT22;41758;51.992;5.890;2023-01-30T23:52:26;8.80;63.90
55828;DHT22;41758;51.992;5.890;2023-01-30T23:54:53;8.80;64.20
55828;DHT22;41758;51.992;5.890;2023-01-30T23:57:18;8.80;64.30
55828;DHT22;41758;51.992;5.890;2023-01-30T23:59:44;8.80;64.40
